createdAt,value
2022-10-09T00:01:20.121Z,101541.97
2022-10-09T00:03:53.013Z,101544.59
2022-10-09T00:06:23.320Z,101543.66
2022-10-09T00:08:52.251Z,101547.38
2022-10-09T00:11:21.940Z,101543.66
2022-10-09T00:13:50.694Z,101542.75
2022-10-09T00:16:20.724Z,101541.88
2022-10-09T00:18:49.109Z,101536.81
2022-10-09T00:21:21.746Z,101535.50
2022-10-09T00:23:50.236Z,101533.75
2022-10-09T00:26:18.165Z,101537.19
2022-10-09T00:28:46.817Z,101542.69
2022-10-09T00:31:15.313Z,101539.22
2022-10-09T00:33:46.984Z,101535.16
2022-10-09T00:36:17.085Z,101533.78
2022-10-09T00:38:45.734Z,101534.72
2022-10-09T00:41:16.354Z,101537.34
2022-10-09T00:43:47.008Z,101538.22
2022-10-09T00:46:24.897Z,101533.97
2022-10-09T00:49:00.686Z,101535.84
2022-10-09T00:51:30.876Z,101530.13
2022-10-09T00:53:59.812Z,101529.66
2022-10-09T00:56:28.824Z,101533.44
2022-10-09T00:58:59.447Z,101536.81
2022-10-09T01:01:28.492Z,101532.38
2022-10-09T01:03:57.781Z,101531.50
2022-10-09T01:06:38.627Z,101526.44
2022-10-09T01:09:13.300Z,101531.91
2022-10-09T01:11:49.986Z,101528.59
2022-10-09T01:14:26.338Z,101522.50
2022-10-09T01:17:03.183Z,101518.78
2022-10-09T01:19:52.256Z,101522.34
2022-10-09T01:22:40.126Z,101529.22
2022-10-09T01:25:10.235Z,101518.88
2022-10-09T01:27:41.871Z,101516.25
2022-10-09T01:30:12.361Z,101523.63
2022-10-09T01:32:43.914Z,101524.66
2022-10-09T01:35:15.204Z,101522.56
2022-10-09T01:37:45.893Z,101519.88
2022-10-09T01:40:15.658Z,101519.03
2022-10-09T01:42:46.932Z,101521.81
2022-10-09T01:45:17.740Z,101515.69
2022-10-09T01:47:45.645Z,101507.06
2022-10-09T01:50:22.761Z,101508.06
2022-10-09T01:52:54.405Z,101512.38
2022-10-09T01:55:39.597Z,101511.56
2022-10-09T01:58:15.713Z,101512.25
2022-10-09T02:00:48.717Z,101510.22
2022-10-09T02:03:18.280Z,101513.25
2022-10-09T02:05:48.927Z,101509.00
2022-10-09T02:08:20.134Z,101501.19
2022-10-09T02:10:55.518Z,101501.38
2022-10-09T02:13:24.996Z,101496.66
2022-10-09T02:15:57.798Z,101492.16
2022-10-09T02:18:33.763Z,101502.81
2022-10-09T02:21:10.335Z,101488.84
2022-10-09T02:23:40.610Z,101486.53
2022-10-09T02:26:11.220Z,101486.47
2022-10-09T02:28:45.203Z,101485.25
2022-10-09T02:31:21.087Z,101470.50
2022-10-09T02:33:55.979Z,101482.69
2022-10-09T02:36:23.902Z,101484.47
2022-10-09T02:38:51.778Z,101485.25
2022-10-09T02:41:19.607Z,101483.31
2022-10-09T02:43:48.810Z,101485.75
2022-10-09T02:46:16.946Z,101483.94
2022-10-09T02:48:45.176Z,101484.78
2022-10-09T02:51:13.250Z,101484.47
2022-10-09T02:53:41.135Z,101474.03
2022-10-09T02:56:09.293Z,101481.78
2022-10-09T02:58:37.662Z,101484.47
2022-10-09T03:01:10.708Z,101482.53
2022-10-09T03:03:38.792Z,101478.06
2022-10-09T03:06:09.418Z,101481.47
2022-10-09T03:08:38.418Z,101472.69
2022-10-09T03:11:06.378Z,101470.75
2022-10-09T03:13:34.871Z,101476.94
2022-10-09T03:16:06.480Z,101477.22
2022-10-09T03:18:36.366Z,101480.91
2022-10-09T03:21:07.571Z,101477.38
2022-10-09T03:23:35.815Z,101482.47
2022-10-09T03:26:06.986Z,101478.28
2022-10-09T03:28:36.948Z,101475.84
2022-10-09T03:31:05.285Z,101477.66
2022-10-09T03:33:33.540Z,101478.53
2022-10-09T03:36:03.812Z,101477.47
2022-10-09T03:38:34.205Z,101476.44
2022-10-09T03:41:05.768Z,101474.69
2022-10-09T03:43:34.097Z,101482.47
2022-10-09T03:46:05.781Z,101474.69
2022-10-09T03:48:33.854Z,101485.53
2022-10-09T03:51:03.218Z,101483.09
2022-10-09T03:53:31.089Z,101486.63
2022-10-09T03:55:58.954Z,101484.13
2022-10-09T03:58:26.956Z,101480.75
2022-10-09T04:00:55.653Z,101487.94
2022-10-09T04:03:23.638Z,101494.03
2022-10-09T04:05:51.421Z,101486.16
2022-10-09T04:08:20.587Z,101492.41
2022-10-09T04:10:48.319Z,101504.13
2022-10-09T04:13:16.171Z,101499.88
2022-10-09T04:15:51.013Z,101502.41
2022-10-09T04:18:21.339Z,101501.72
2022-10-09T04:20:51.089Z,101498.41
2022-10-09T04:23:25.938Z,101501.16
2022-10-09T04:25:54.520Z,101501.84
2022-10-09T04:28:23.301Z,101502.25
2022-10-09T04:30:51.469Z,101505.78
2022-10-09T04:33:19.763Z,101502.59
2022-10-09T04:35:52.147Z,101497.44
2022-10-09T04:38:20.591Z,101499.38
2022-10-09T04:40:57.823Z,101493.50
2022-10-09T04:43:25.945Z,101501.47
2022-10-09T04:45:54.304Z,101497.25
2022-10-09T04:48:25.328Z,101497.31
2022-10-09T04:50:53.203Z,101502.84
2022-10-09T04:53:21.013Z,101493.41
2022-10-09T04:55:49.451Z,101493.41
2022-10-09T04:58:18.653Z,101488.50
2022-10-09T05:00:47.243Z,101492.09
2022-10-09T05:03:17.623Z,101488.91
2022-10-09T05:05:45.572Z,101487.84
2022-10-09T05:08:13.481Z,101481.75
2022-10-09T05:10:41.216Z,101482.84
2022-10-09T05:13:09.070Z,101482.91
2022-10-09T05:15:38.641Z,101481.97
2022-10-09T05:18:06.634Z,101481.44
2022-10-09T05:20:34.445Z,101483.34
2022-10-09T05:23:02.315Z,101482.47
2022-10-09T05:25:30.005Z,101490.47
2022-10-09T05:27:57.864Z,101482.69
2022-10-09T05:30:25.590Z,101481.16
2022-10-09T05:32:54.758Z,101483.06
2022-10-09T05:35:22.649Z,101485.69
2022-10-09T05:37:52.847Z,101483.94
2022-10-09T05:40:22.037Z,101485.25
2022-10-09T05:42:51.963Z,101489.66
2022-10-09T05:45:19.840Z,101485.34
2022-10-09T05:47:47.562Z,101482.69
2022-10-09T05:50:17.462Z,101483.72
2022-10-09T05:52:45.254Z,101487.25
2022-10-09T05:55:13.299Z,101485.72
2022-10-09T05:57:41.438Z,101477.72
2022-10-09T06:00:10.581Z,101479.50
2022-10-09T06:02:40.129Z,101473.25
2022-10-09T06:05:08.469Z,101478.50
2022-10-09T06:07:40.122Z,101481.09
2022-10-09T06:10:08.731Z,101486.34
2022-10-09T06:12:36.579Z,101488.19
2022-10-09T06:15:05.019Z,101489.97
2022-10-09T06:17:37.559Z,101485.34
2022-10-09T06:20:08.959Z,101490.59
2022-10-09T06:22:36.810Z,101492.22
2022-10-09T06:25:08.972Z,101491.25
2022-10-09T06:27:36.794Z,101493.69
2022-10-09T06:30:05.041Z,101497.13
2022-10-09T06:32:33.062Z,101490.81
2022-10-09T06:35:00.765Z,101494.03
2022-10-09T06:37:28.659Z,101492.94
2022-10-09T06:39:56.470Z,101499.81
2022-10-09T06:42:25.632Z,101491.75
2022-10-09T06:44:58.391Z,101499.31
2022-10-09T06:47:26.156Z,101488.63
2022-10-09T06:49:53.910Z,101502.38
2022-10-09T06:52:21.769Z,101495.28
2022-10-09T06:54:49.551Z,101502.09
2022-10-09T06:57:17.327Z,101508.94
2022-10-09T06:59:46.615Z,101512.88
2022-10-09T07:02:14.561Z,101511.53
2022-10-09T07:04:42.351Z,101510.41
2022-10-09T07:07:10.404Z,101510.00
2022-10-09T07:09:38.458Z,101512.28
2022-10-09T07:12:06.258Z,101517.16
2022-10-09T07:14:34.103Z,101510.88
2022-10-09T07:17:03.456Z,101513.16
2022-10-09T07:19:31.327Z,101504.91
2022-10-09T07:21:59.048Z,101508.00
2022-10-09T07:24:26.881Z,101509.22
2022-10-09T07:26:55.511Z,101502.97
2022-10-09T07:29:25.804Z,101512.06
2022-10-09T07:31:53.633Z,101512.63
2022-10-09T07:34:23.146Z,101508.66
2022-10-09T07:36:50.969Z,101505.66
2022-10-09T07:39:20.009Z,101500.91
2022-10-09T07:41:50.704Z,101503.09
2022-10-09T07:44:18.929Z,101507.16
2022-10-09T07:46:46.778Z,101502.38
2022-10-09T07:49:14.799Z,101499.25
2022-10-09T07:51:43.860Z,101504.03
2022-10-09T07:54:11.938Z,101494.72
2022-10-09T07:56:40.253Z,101502.19
2022-10-09T07:59:11.999Z,101505.25
2022-10-09T08:01:40.277Z,101503.81
2022-10-09T08:04:09.094Z,101502.44
2022-10-09T08:06:37.137Z,101498.38
2022-10-09T08:09:09.080Z,101501.34
2022-10-09T08:11:40.438Z,101493.78
2022-10-09T08:14:09.135Z,101495.88
2022-10-09T08:16:36.927Z,101495.25
2022-10-09T08:19:04.929Z,101489.38
2022-10-09T08:21:33.733Z,101489.59
2022-10-09T08:24:02.156Z,101483.59
2022-10-09T08:26:32.209Z,101477.69
2022-10-09T08:29:02.016Z,101476.31
2022-10-09T08:31:31.621Z,101480.00
2022-10-09T08:34:01.719Z,101480.22
2022-10-09T08:36:30.110Z,101478.06
2022-10-09T08:39:00.593Z,101484.91
2022-10-09T08:41:41.960Z,101471.91
2022-10-09T08:44:16.210Z,101471.13
2022-10-09T08:46:56.042Z,101473.16
2022-10-09T08:49:28.332Z,101466.69
2022-10-09T08:51:59.866Z,101467.03
2022-10-09T08:54:34.220Z,101462.00
2022-10-09T08:57:05.735Z,101464.03
2022-10-09T08:59:33.664Z,101459.09
2022-10-09T09:02:08.661Z,101454.91
2022-10-09T09:04:55.622Z,101449.75
2022-10-09T09:07:31.416Z,101451.78
2022-10-09T09:10:06.637Z,101452.88
2022-10-09T09:12:47.451Z,101443.41
2022-10-09T09:15:36.224Z,101439.81
2022-10-09T09:18:21.022Z,101436.88
2022-10-09T09:20:53.280Z,101426.28
2022-10-09T09:23:27.431Z,101424.66
2022-10-09T09:25:55.494Z,101420.34
2022-10-09T09:28:29.158Z,101415.22
2022-10-09T09:31:01.705Z,101409.00
2022-10-09T09:33:39.888Z,101401.78
2022-10-09T09:36:17.608Z,101401.53
2022-10-09T09:39:32.411Z,101390.25
2022-10-09T09:41:41.086Z,101382.72
2022-10-09T09:44:12.280Z,101382.88
2022-10-09T09:46:41.168Z,101374.13
2022-10-09T09:49:19.644Z,101370.28
2022-10-09T09:51:49.408Z,101356.22
2022-10-09T09:54:21.858Z,101362.34
2022-10-09T09:57:11.889Z,101354.88
2022-10-09T09:59:43.001Z,101352.47
2022-10-09T10:02:15.292Z,101346.91
2022-10-09T10:04:52.349Z,101345.41
2022-10-09T10:07:31.933Z,101338.25
2022-10-09T10:10:08.019Z,101328.44
2022-10-09T10:12:41.877Z,101337.59
2022-10-09T10:15:21.060Z,101334.50
2022-10-09T10:17:50.801Z,101333.59
2022-10-09T10:20:19.547Z,101329.19
2022-10-09T10:22:53.016Z,101325.03
2022-10-09T10:25:23.571Z,101332.41
2022-10-09T10:27:57.122Z,101321.09
2022-10-09T10:30:26.329Z,101319.34
2022-10-09T10:32:59.388Z,101315.91
2022-10-09T10:35:32.449Z,101315.22
2022-10-09T10:38:06.669Z,101309.69
2022-10-09T10:40:37.777Z,101310.69
2022-10-09T10:43:16.750Z,101302.03
2022-10-09T10:46:01.036Z,101296.88
2022-10-09T10:48:31.863Z,101304.56
2022-10-09T10:51:17.092Z,101291.03
2022-10-09T10:54:01.430Z,101300.28
2022-10-09T10:56:31.923Z,101294.72
2022-10-09T10:59:13.752Z,101293.34
2022-10-09T11:01:54.914Z,101287.63
2022-10-09T11:04:37.643Z,101275.44
2022-10-09T11:07:15.256Z,101276.25
2022-10-09T11:09:53.209Z,101279.34
2022-10-09T11:12:47.459Z,101271.75
2022-10-09T11:15:30.736Z,101279.63
2022-10-09T11:18:14.025Z,101268.69
2022-10-09T11:21:03.595Z,101267.16
2022-10-09T11:23:45.323Z,101256.47
2022-10-09T11:26:22.385Z,101252.97
2022-10-09T11:28:54.435Z,101247.19
2022-10-09T11:31:29.458Z,101236.78
2022-10-09T11:34:04.419Z,101234.97
2022-10-09T11:36:35.830Z,101230.06
2022-10-09T11:39:06.532Z,101226.13
2022-10-09T11:41:36.382Z,101222.75
2022-10-09T11:44:22.534Z,101216.69
2022-10-09T11:47:01.574Z,101218.31
2022-10-09T11:49:40.311Z,101198.63
2022-10-09T11:52:18.405Z,101210.09
2022-10-09T11:54:46.401Z,101197.69
2022-10-09T11:57:15.460Z,101197.22
2022-10-09T11:59:43.760Z,101200.97
2022-10-09T12:02:25.269Z,101190.84
2022-10-09T12:04:56.716Z,101185.44
2022-10-09T12:07:30.692Z,101187.38
2022-10-09T12:10:03.027Z,101179.44
2022-10-09T12:12:31.752Z,101178.41
2022-10-09T12:15:12.090Z,101164.06
2022-10-09T12:17:49.644Z,101165.78
2022-10-09T12:20:23.123Z,101153.34
2022-10-09T12:23:21.318Z,101160.56
2022-10-09T12:25:45.803Z,101157.34
2022-10-09T12:28:26.776Z,101146.34
2022-10-09T12:30:56.393Z,101146.53
2022-10-09T12:33:30.451Z,101147.81
2022-10-09T12:36:04.017Z,101136.69
2022-10-09T12:38:32.866Z,101131.53
2022-10-09T12:41:04.033Z,101137.94
2022-10-09T12:43:33.563Z,101134.66
2022-10-09T12:46:02.365Z,101129.72
2022-10-09T12:48:36.716Z,101125.06
2022-10-09T12:51:15.730Z,101117.56
2022-10-09T12:53:50.100Z,101110.88
2022-10-09T12:56:24.049Z,101113.78
2022-10-09T12:58:53.088Z,101101.25
2022-10-09T13:01:22.431Z,101092.03
2022-10-09T13:03:56.869Z,101082.19
2022-10-09T13:06:28.638Z,101089.56
2022-10-09T13:08:58.378Z,101077.03
2022-10-09T13:11:32.365Z,101089.22
2022-10-09T13:14:00.382Z,101081.47
2022-10-09T13:16:40.310Z,101080.00
2022-10-09T13:19:23.309Z,101074.94
2022-10-09T13:22:17.077Z,101068.72
2022-10-09T13:24:45.066Z,101071.69
2022-10-09T13:27:14.527Z,101054.78
2022-10-09T13:29:43.535Z,101062.59
2022-10-09T13:32:14.137Z,101052.22
2022-10-09T13:34:42.786Z,101050.50
2022-10-09T13:37:13.888Z,101051.31
2022-10-09T13:39:41.970Z,101050.34
2022-10-09T13:42:12.924Z,101046.63
2022-10-09T13:44:40.968Z,101039.25
2022-10-09T13:47:08.746Z,101037.06
2022-10-09T13:49:36.647Z,101037.59
2022-10-09T13:52:04.718Z,101032.81
2022-10-09T13:54:34.092Z,101031.41
2022-10-09T13:57:02.018Z,101030.34
2022-10-09T13:59:31.298Z,101027.38
2022-10-09T14:01:59.391Z,101030.56
2022-10-09T14:04:28.006Z,101023.44
2022-10-09T14:06:55.960Z,101018.78
2022-10-09T14:09:24.117Z,101014.75
2022-10-09T14:11:53.522Z,101002.38
2022-10-09T14:14:22.302Z,101002.31
2022-10-09T14:16:50.641Z,100993.16
2022-10-09T14:19:18.568Z,100996.25
2022-10-09T14:21:47.527Z,100989.22
2022-10-09T14:24:15.920Z,100984.09
2022-10-09T14:26:47.307Z,100989.72
2022-10-09T14:29:20.414Z,100982.84
2022-10-09T14:31:50.664Z,100976.84
2022-10-09T14:34:18.840Z,100978.94
2022-10-09T14:36:46.789Z,100967.06
2022-10-09T14:39:14.993Z,100971.19
2022-10-09T14:41:43.159Z,100965.84
2022-10-09T14:44:11.218Z,100961.88
2022-10-09T14:46:40.772Z,100955.69
2022-10-09T14:49:09.726Z,100953.91
2022-10-09T14:51:40.164Z,100957.91
2022-10-09T14:54:10.176Z,100949.22
2022-10-09T14:56:38.258Z,100945.38
2022-10-09T14:59:07.230Z,100936.53
2022-10-09T15:01:35.800Z,100939.06
2022-10-09T15:04:06.271Z,100947.91
2022-10-09T15:06:34.916Z,100939.88
2022-10-09T15:09:05.504Z,100939.03
2022-10-09T15:11:35.269Z,100933.03
2022-10-09T15:14:04.060Z,100931.97
2022-10-09T15:16:32.123Z,100928.66
2022-10-09T15:19:00.172Z,100931.13
2022-10-09T15:21:30.674Z,100927.78
2022-10-09T15:24:00.287Z,100924.75
2022-10-09T15:26:30.069Z,100924.38
2022-10-09T15:28:58.023Z,100913.53
2022-10-09T15:31:29.873Z,100921.00
2022-10-09T15:34:01.074Z,100914.28
2022-10-09T15:36:31.582Z,100902.56
2022-10-09T15:39:02.836Z,100903.06
2022-10-09T15:41:32.561Z,100902.25
2022-10-09T15:44:02.918Z,100901.56
2022-10-09T15:46:31.545Z,100899.66
2022-10-09T15:48:59.504Z,100900.31
2022-10-09T15:51:29.287Z,100894.09
2022-10-09T15:54:00.961Z,100890.84
2022-10-09T15:56:33.811Z,100889.81
2022-10-09T15:59:04.067Z,100886.25
2022-10-09T16:01:31.858Z,100885.34
2022-10-09T16:03:59.828Z,100888.28
2022-10-09T16:06:30.166Z,100883.84
2022-10-09T16:09:00.913Z,100881.13
2022-10-09T16:11:28.800Z,100876.88
2022-10-09T16:13:57.075Z,100879.28
2022-10-09T16:16:27.453Z,100884.41
2022-10-09T16:18:56.114Z,100882.78
2022-10-09T16:21:26.877Z,100887.31
2022-10-09T16:23:58.685Z,100880.94
2022-10-09T16:26:30.412Z,100875.97
2022-10-09T16:29:00.159Z,100869.72
2022-10-09T16:31:30.263Z,100874.81
2022-10-09T16:33:58.660Z,100857.88
2022-10-09T16:36:26.486Z,100867.06
2022-10-09T16:38:54.749Z,100866.25
2022-10-09T16:41:23.952Z,100861.16
2022-10-09T16:43:54.919Z,100858.66
2022-10-09T16:46:25.266Z,100870.19
2022-10-09T16:48:54.463Z,100866.00
2022-10-09T16:51:24.491Z,100868.97
2022-10-09T16:53:57.081Z,100875.31
2022-10-09T16:56:27.342Z,100864.69
2022-10-09T16:58:57.812Z,100867.63
2022-10-09T17:01:26.402Z,100868.88
2022-10-09T17:03:54.689Z,100870.56
2022-10-09T17:06:24.183Z,100863.56
2022-10-09T17:08:53.084Z,100872.50
2022-10-09T17:11:21.888Z,100867.31
2022-10-09T17:13:50.034Z,100865.91
2022-10-09T17:16:22.678Z,100867.97
2022-10-09T17:18:51.245Z,100866.41
2022-10-09T17:21:20.242Z,100859.41
2022-10-09T17:23:48.994Z,100858.50
2022-10-09T17:26:18.907Z,100859.31
2022-10-09T17:28:49.698Z,100862.75
2022-10-09T17:31:22.080Z,100862.75
2022-10-09T17:33:51.328Z,100859.06
2022-10-09T17:36:21.170Z,100863.72
2022-10-09T17:38:50.551Z,100855.31
2022-10-09T17:41:23.453Z,100856.97
2022-10-09T17:43:52.172Z,100855.84
2022-10-09T17:46:22.977Z,100855.66
2022-10-09T17:48:53.257Z,100862.59
2022-10-09T17:51:23.933Z,100860.59
2022-10-09T17:53:52.618Z,100859.53
2022-10-09T17:56:20.855Z,100864.50
2022-10-09T17:58:49.593Z,100860.31
2022-10-09T18:01:18.439Z,100860.81
2022-10-09T18:03:47.653Z,100850.63
2022-10-09T18:06:17.304Z,100850.75
2022-10-09T18:08:46.197Z,100847.03
2022-10-09T18:11:17.718Z,100844.91
2022-10-09T18:13:47.056Z,100840.00
2022-10-09T18:16:18.731Z,100841.47
2022-10-09T18:18:48.236Z,100843.53
2022-10-09T18:21:18.743Z,100845.47
2022-10-09T18:23:47.707Z,100841.38
2022-10-09T18:26:17.706Z,100839.09
2022-10-09T18:28:49.241Z,100837.66
2022-10-09T18:31:36.805Z,100838.91
2022-10-09T18:34:06.496Z,100833.13
2022-10-09T18:36:35.848Z,100839.75
2022-10-09T18:39:07.210Z,100834.97
2022-10-09T18:41:36.156Z,100847.00
2022-10-09T18:44:05.142Z,100842.19
2022-10-09T18:46:36.954Z,100835.72
2022-10-09T18:49:12.634Z,100837.06
2022-10-09T18:51:42.960Z,100838.25
2022-10-09T18:54:15.778Z,100841.25
2022-10-09T18:56:46.252Z,100840.06
2022-10-09T18:59:17.546Z,100838.38
2022-10-09T19:01:45.395Z,100834.56
2022-10-09T19:04:19.514Z,100839.34
2022-10-09T19:06:47.584Z,100836.09
2022-10-09T19:09:15.774Z,100835.28
2022-10-09T19:11:43.715Z,100830.13
2022-10-09T19:14:11.695Z,100838.41
2022-10-09T19:16:42.529Z,100833.22
2022-10-09T19:19:12.963Z,100828.81
2022-10-09T19:21:43.906Z,100829.88
2022-10-09T19:24:14.828Z,100830.09
2022-10-09T19:26:45.683Z,100827.59
2022-10-09T19:29:13.634Z,100822.44
2022-10-09T19:31:41.811Z,100827.31
2022-10-09T19:34:09.651Z,100831.16
2022-10-09T19:36:37.545Z,100825.38
2022-10-09T19:39:08.985Z,100820.25
2022-10-09T19:41:37.029Z,100818.41
2022-10-09T19:44:07.390Z,100819.38
2022-10-09T19:46:37.507Z,100825.84
2022-10-09T19:49:05.918Z,100821.03
2022-10-09T19:51:36.026Z,100819.91
2022-10-09T19:54:05.110Z,100820.06
2022-10-09T19:56:55.442Z,100813.56
2022-10-09T19:59:23.324Z,100809.63
2022-10-09T20:01:55.173Z,100805.41
2022-10-09T20:04:28.060Z,100802.66
2022-10-09T20:06:55.939Z,100795.94
2022-10-09T20:09:23.766Z,100804.91
2022-10-09T20:11:51.593Z,100803.38
2022-10-09T20:14:21.116Z,100800.13
2022-10-09T20:16:49.084Z,100807.44
2022-10-09T20:19:16.895Z,100807.53
2022-10-09T20:21:44.908Z,100796.13
2022-10-09T20:24:12.759Z,100804.78
2022-10-09T20:26:43.186Z,100801.31
2022-10-09T20:29:11.397Z,100803.22
2022-10-09T20:31:40.928Z,100800.09
2022-10-09T20:34:08.907Z,100807.28
2022-10-09T20:36:39.037Z,100797.78
2022-10-09T20:39:08.759Z,100803.16
2022-10-09T20:41:37.008Z,100799.72
2022-10-09T20:44:07.939Z,100795.63
2022-10-09T20:46:37.852Z,100794.03
2022-10-09T20:49:09.408Z,100793.78
2022-10-09T20:51:38.402Z,100801.16
2022-10-09T20:54:08.562Z,100800.69
2022-10-09T20:56:55.385Z,100801.25
2022-10-09T20:59:23.283Z,100803.38
2022-10-09T21:01:51.102Z,100792.09
2022-10-09T21:04:20.471Z,100796.66
2022-10-09T21:06:48.245Z,100794.56
2022-10-09T21:09:16.193Z,100794.19
2022-10-09T21:11:46.607Z,100791.19
2022-10-09T21:14:14.504Z,100794.72
2022-10-09T21:16:42.310Z,100791.38
2022-10-09T21:19:13.359Z,100789.81
2022-10-09T21:21:45.343Z,100792.78
2022-10-09T21:24:17.889Z,100787.75
2022-10-09T21:26:47.000Z,100789.63
2022-10-09T21:29:15.521Z,100786.34
2022-10-09T21:31:43.416Z,100787.41
2022-10-09T21:34:11.225Z,100784.38
2022-10-09T21:37:08.469Z,100779.09
2022-10-09T21:39:32.724Z,100783.66
2022-10-09T21:42:00.478Z,100776.91
2022-10-09T21:44:28.546Z,100777.97
2022-10-09T21:46:56.293Z,100779.03
2022-10-09T21:49:27.073Z,100777.13
2022-10-09T21:51:57.003Z,100782.59
2022-10-09T21:54:27.545Z,100777.22
2022-10-09T21:56:55.312Z,100771.34
2022-10-09T21:59:26.168Z,100770.72
2022-10-09T22:01:54.067Z,100765.56
2022-10-09T22:04:21.917Z,100759.56
2022-10-09T22:06:49.833Z,100768.31
2022-10-09T22:09:19.850Z,100760.44
2022-10-09T22:11:47.724Z,100760.53
2022-10-09T22:14:17.571Z,100755.88
2022-10-09T22:16:45.387Z,100752.31
2022-10-09T22:19:13.793Z,100749.28
2022-10-09T22:21:41.645Z,100753.31
2022-10-09T22:24:09.488Z,100746.88
2022-10-09T22:26:38.665Z,100746.88
2022-10-09T22:29:06.595Z,100748.56
2022-10-09T22:31:34.594Z,100746.88
2022-10-09T22:34:03.382Z,100746.06
2022-10-09T22:36:33.484Z,100739.22
2022-10-09T22:39:06.386Z,100749.75
2022-10-09T22:41:36.001Z,100742.19
2022-10-09T22:44:07.485Z,100742.19
2022-10-09T22:46:37.779Z,100743.97
2022-10-09T22:49:07.280Z,100740.78
2022-10-09T22:51:35.552Z,100746.38
2022-10-09T22:54:03.484Z,100743.22
2022-10-09T22:56:33.283Z,100740.50
2022-10-09T22:59:01.679Z,100738.59
2022-10-09T23:01:34.091Z,100740.50
2022-10-09T23:04:03.904Z,100743.44
2022-10-09T23:06:31.748Z,100735.66
2022-10-09T23:09:00.222Z,100739.47
2022-10-09T23:11:28.415Z,100738.22
2022-10-09T23:13:58.073Z,100739.25
2022-10-09T23:16:27.584Z,100732.41
2022-10-09T23:19:06.144Z,100735.91
2022-10-09T23:21:36.121Z,100738.31
2022-10-09T23:24:06.404Z,100729.88
2022-10-09T23:26:35.938Z,100731.06
2022-10-09T23:29:06.033Z,100732.84
2022-10-09T23:31:34.653Z,100725.91
2022-10-09T23:34:05.197Z,100720.97
2022-10-09T23:36:33.121Z,100720.56
2022-10-09T23:39:02.905Z,100713.72
2022-10-09T23:41:30.935Z,100718.03
2022-10-09T23:43:59.131Z,100715.41
2022-10-09T23:46:32.801Z,100712.88
2022-10-09T23:49:01.738Z,100713.91
2022-10-09T23:51:33.328Z,100709.69
2022-10-09T23:54:01.555Z,100713.19
2022-10-09T23:56:32.313Z,100711.41
2022-10-09T23:59:02.236Z,100704.66
